createdAt,value
2022-08-19T00:02:01.300Z,22.70
2022-08-19T00:07:04.681Z,22.70
2022-08-19T00:12:00.441Z,22.70
2022-08-19T00:17:03.271Z,22.70
2022-08-19T00:22:04.200Z,22.70
2022-08-19T00:27:25.387Z,22.70
2022-08-19T00:32:03.395Z,22.70
2022-08-19T00:36:45.116Z,22.60
2022-08-19T00:41:44.492Z,22.70
2022-08-19T00:46:40.261Z,22.60
2022-08-19T00:51:36.164Z,22.60
2022-08-19T00:56:35.865Z,22.60
2022-08-19T01:01:37.953Z,22.60
2022-08-19T01:06:42.093Z,22.50
2022-08-19T01:11:42.781Z,22.50
2022-08-19T01:16:38.450Z,22.50
2022-08-19T01:21:39.147Z,22.50
2022-08-19T01:26:40.129Z,22.50
2022-08-19T01:31:39.086Z,22.40
2022-08-19T01:36:38.584Z,22.40
2022-08-19T01:41:39.606Z,22.30
2022-08-19T01:46:39.692Z,22.30
2022-08-19T01:51:45.498Z,22.20
2022-08-19T01:56:41.876Z,22.20
2022-08-19T02:01:46.708Z,22.10
2022-08-19T02:06:47.222Z,22.00
2022-08-19T02:11:42.983Z,22.00
2022-08-19T02:16:46.406Z,22.00
2022-08-19T02:21:47.099Z,21.90
2022-08-19T02:26:52.610Z,21.90
2022-08-19T02:31:53.554Z,21.80
2022-08-19T02:36:51.666Z,21.80
2022-08-19T02:41:54.697Z,21.80
2022-08-19T02:46:50.557Z,21.80
2022-08-19T02:51:51.161Z,21.70
2022-08-19T02:56:56.535Z,21.70
2022-08-19T03:01:52.404Z,21.70
2022-08-19T03:06:53.090Z,21.60
2022-08-19T03:11:53.708Z,21.60
2022-08-19T03:16:54.372Z,21.60
2022-08-19T03:21:54.994Z,21.60
2022-08-19T03:27:03.261Z,21.60
2022-08-19T03:31:59.060Z,21.60
2022-08-19T03:37:04.572Z,21.50
2022-08-19T03:42:33.234Z,21.50
2022-08-19T03:47:07.345Z,21.50
2022-08-19T03:51:30.574Z,21.50
2022-08-19T03:56:29.594Z,21.50
2022-08-19T04:01:35.655Z,21.50
2022-08-19T04:06:35.926Z,21.50
2022-08-19T04:11:32.517Z,21.40
2022-08-19T04:16:42.187Z,21.40
2022-08-19T04:21:32.986Z,21.40
2022-08-19T04:26:38.507Z,21.40
2022-08-19T04:31:39.175Z,21.40
2022-08-19T04:36:34.939Z,21.40
2022-08-19T04:41:35.767Z,21.40
2022-08-19T04:46:39.770Z,21.40
2022-08-19T04:51:43.509Z,21.40
2022-08-19T04:56:37.729Z,21.40
2022-08-19T05:01:43.913Z,21.40
2022-08-19T05:06:39.083Z,21.40
2022-08-19T05:11:44.553Z,21.40
2022-08-19T05:16:45.148Z,21.40
2022-08-19T05:21:48.616Z,21.40
2022-08-19T05:26:45.774Z,21.40
2022-08-19T05:31:45.687Z,21.40
2022-08-19T05:36:45.731Z,21.40
2022-08-19T05:41:46.476Z,21.40
2022-08-19T05:46:51.967Z,21.40
2022-08-19T05:51:53.335Z,21.40
2022-08-19T05:56:53.347Z,21.40
2022-08-19T06:01:49.161Z,21.40
2022-08-19T06:06:49.931Z,21.40
2022-08-19T06:11:52.904Z,21.40
2022-08-19T06:16:51.107Z,21.40
2022-08-19T06:21:51.794Z,21.50
2022-08-19T06:26:56.837Z,21.50
2022-08-19T06:31:55.936Z,21.50
2022-08-19T06:36:56.715Z,21.50
2022-08-19T06:42:02.237Z,21.50
2022-08-19T06:47:02.952Z,21.50
2022-08-19T06:51:58.698Z,21.60
2022-08-19T06:56:59.307Z,21.60
2022-08-19T07:01:59.955Z,21.60
2022-08-19T07:07:09.492Z,21.70
2022-08-19T07:12:06.926Z,21.70
2022-08-19T07:17:02.047Z,21.70
2022-08-19T07:22:02.715Z,21.70
2022-08-19T07:27:03.392Z,21.80
2022-08-19T07:32:04.058Z,21.80
2022-08-19T07:37:09.978Z,21.80
2022-08-19T07:42:05.332Z,21.90
2022-08-19T07:47:48.473Z,21.90
2022-08-19T07:52:09.449Z,21.90
2022-08-19T07:57:10.073Z,22.00
2022-08-19T08:02:10.811Z,22.00
2022-08-19T08:07:12.706Z,22.00
2022-08-19T08:12:30.904Z,22.10
2022-08-19T08:17:18.185Z,22.10
2022-08-19T08:22:13.452Z,22.20
2022-08-19T08:27:14.154Z,22.30
2022-08-19T08:32:15.075Z,22.40
2022-08-19T08:37:16.175Z,22.40
2022-08-19T08:42:21.397Z,22.50
2022-08-19T08:47:22.130Z,22.60
2022-08-19T08:52:31.889Z,22.70
2022-08-19T08:57:23.507Z,22.70
2022-08-19T09:02:24.132Z,22.80
2022-08-19T09:07:34.872Z,22.80
2022-08-19T09:12:26.707Z,22.90
2022-08-19T09:17:26.217Z,23.00
2022-08-19T09:22:31.655Z,23.00
2022-08-19T09:27:35.500Z,23.10
2022-08-19T09:32:30.902Z,23.10
2022-08-19T09:37:36.396Z,23.20
2022-08-19T09:42:35.261Z,23.20
2022-08-19T09:47:33.023Z,23.30
2022-08-19T09:52:38.411Z,23.30
2022-08-19T09:57:34.307Z,23.30
2022-08-19T10:02:40.213Z,23.30
2022-08-19T10:07:36.308Z,23.40
2022-08-19T10:12:39.018Z,23.40
2022-08-19T10:17:47.613Z,23.40
2022-08-19T10:22:48.824Z,23.50
2022-08-19T10:27:48.433Z,23.50
2022-08-19T10:32:46.634Z,23.50
2022-08-19T10:37:50.446Z,23.50
2022-08-19T10:42:43.111Z,23.60
2022-08-19T10:47:53.730Z,23.60
2022-08-19T10:52:49.386Z,23.60
2022-08-19T10:58:01.592Z,23.70
2022-08-19T11:07:54.186Z,23.70
2022-08-19T11:12:55.159Z,23.80
2022-08-19T11:17:56.294Z,23.80
2022-08-19T11:22:59.967Z,23.80
2022-08-19T11:27:56.851Z,23.80
2022-08-19T11:32:55.456Z,23.90
2022-08-19T11:37:56.247Z,23.90
2022-08-19T11:43:03.371Z,23.90
2022-08-19T11:48:16.374Z,24.00
2022-08-19T11:53:09.048Z,24.00
2022-08-19T11:58:04.246Z,24.00
2022-08-19T12:03:04.974Z,24.00
2022-08-19T12:08:06.073Z,24.10
2022-08-19T12:13:11.127Z,24.10
2022-08-19T12:18:11.870Z,24.10
2022-08-19T12:23:12.518Z,24.10
2022-08-19T12:28:15.879Z,24.20
2022-08-19T12:33:16.894Z,24.10
2022-08-19T12:38:12.349Z,24.10
2022-08-19T12:43:13.002Z,24.10
2022-08-19T12:48:33.121Z,24.20
2022-08-19T12:53:14.406Z,24.20
2022-08-19T12:58:21.472Z,24.20
2022-08-19T13:03:19.054Z,24.30
2022-08-19T13:08:19.180Z,24.30
2022-08-19T13:18:20.578Z,24.30
2022-08-19T13:23:21.165Z,24.40
2022-08-19T13:28:28.967Z,24.40
2022-08-19T13:33:29.969Z,24.40
2022-08-19T13:38:25.901Z,24.50
2022-08-19T13:43:26.519Z,24.50
2022-08-19T13:48:28.208Z,24.50
2022-08-19T13:53:28.008Z,24.50
2022-08-19T13:58:28.519Z,24.50
2022-08-19T14:03:33.854Z,24.60
2022-08-19T14:08:37.251Z,24.60
2022-08-19T14:13:37.901Z,24.60
2022-08-19T14:18:33.765Z,24.60
2022-08-19T14:23:39.261Z,24.60
2022-08-19T14:28:34.949Z,24.60
2022-08-19T14:33:35.738Z,24.60
2022-08-19T14:38:41.183Z,24.60
2022-08-19T14:43:44.373Z,24.60
2022-08-19T14:48:40.967Z,24.60
2022-08-19T14:53:45.721Z,24.60
2022-08-19T14:58:46.252Z,24.50
2022-08-19T15:03:41.889Z,24.50
2022-08-19T15:08:42.634Z,24.50
2022-08-19T15:13:48.045Z,24.50
2022-08-19T15:18:43.745Z,24.50
2022-08-19T15:23:46.982Z,24.50
2022-08-19T15:28:52.518Z,24.50
2022-08-19T15:33:52.933Z,24.40
2022-08-19T15:38:48.761Z,24.40
2022-08-19T15:43:55.718Z,24.40
2022-08-19T15:48:56.258Z,24.40
2022-08-19T15:53:50.623Z,24.40
2022-08-19T15:58:58.968Z,24.30
2022-08-19T16:03:59.562Z,24.30
2022-08-19T16:09:00.738Z,24.30
2022-08-19T16:13:56.120Z,24.30
2022-08-19T16:18:56.834Z,24.20
2022-08-19T16:23:57.532Z,24.20
2022-08-19T16:28:59.059Z,24.20
2022-08-19T16:34:06.519Z,24.10
2022-08-19T16:39:07.331Z,24.10
2022-08-19T16:44:03.070Z,24.10
2022-08-19T16:49:08.491Z,24.10
2022-08-19T16:54:09.148Z,24.00
2022-08-19T16:59:04.946Z,24.00
2022-08-19T17:04:05.554Z,24.00
2022-08-19T17:09:06.259Z,23.90
2022-08-19T17:14:06.909Z,23.90
2022-08-19T17:19:10.355Z,23.90
2022-08-19T17:24:11.414Z,23.90
2022-08-19T17:29:17.317Z,23.80
2022-08-19T17:34:12.908Z,23.80
2022-08-19T17:39:18.938Z,23.80
2022-08-19T17:44:19.143Z,23.80
2022-08-19T17:49:14.532Z,23.70
2022-08-19T17:54:20.667Z,23.70
2022-08-19T17:59:18.795Z,23.70
2022-08-19T18:04:19.220Z,23.70
2022-08-19T18:09:20.629Z,23.60
2022-08-19T18:14:27.129Z,23.60
2022-08-19T18:19:26.928Z,23.60
2022-08-19T18:24:21.882Z,23.60
2022-08-19T18:29:22.687Z,23.60
2022-08-19T18:34:23.335Z,23.50
2022-08-19T18:51:51.742Z,23.40
2022-08-19T18:56:55.828Z,23.40
2022-08-19T19:01:51.380Z,23.40
2022-08-19T19:07:02.099Z,23.40
2022-08-19T19:11:52.699Z,23.30
2022-08-19T19:16:53.324Z,23.30
2022-08-19T19:21:53.974Z,23.30
2022-08-19T19:26:59.205Z,23.20
2022-08-19T19:32:03.103Z,23.20
2022-08-19T19:36:58.807Z,23.20
2022-08-19T19:42:04.364Z,23.20
2022-08-19T19:46:59.890Z,23.20
2022-08-19T19:52:05.518Z,23.20
2022-08-19T19:57:01.219Z,23.10
2022-08-19T20:02:01.875Z,23.10
2022-08-19T20:07:05.283Z,23.10
2022-08-19T20:12:10.811Z,23.10
2022-08-19T20:17:11.578Z,23.10
2022-08-19T20:22:07.406Z,23.10
2022-08-19T20:27:12.934Z,23.00
2022-08-19T20:32:08.846Z,23.00
2022-08-19T20:37:09.732Z,23.00
2022-08-19T20:42:14.964Z,23.00
2022-08-19T20:47:10.559Z,23.00
2022-08-19T20:52:14.018Z,23.00
2022-08-19T20:57:14.508Z,22.90
2022-08-19T21:02:15.324Z,22.90
2022-08-19T21:07:15.994Z,22.90
2022-08-19T21:12:21.498Z,22.90
2022-08-19T21:17:17.275Z,22.90
2022-08-19T21:22:23.992Z,22.90
2022-08-19T21:27:24.010Z,22.80
2022-08-19T21:32:24.740Z,22.80
2022-08-19T21:37:26.127Z,22.80
2022-08-19T21:42:26.026Z,22.80
2022-08-19T21:47:31.703Z,22.80
2022-08-19T21:52:32.279Z,22.70
2022-08-19T21:57:28.165Z,22.70
2022-08-19T22:02:33.637Z,22.70
2022-08-19T22:07:32.227Z,22.70
2022-08-19T22:12:32.789Z,22.70
2022-08-19T22:17:33.436Z,22.70
2022-08-19T22:22:34.179Z,22.70
2022-08-19T22:27:34.911Z,22.70
2022-08-19T22:32:35.585Z,22.70
2022-08-19T22:38:45.914Z,22.70
2022-08-19T22:42:36.987Z,22.60
2022-08-19T22:47:39.231Z,22.60
2022-08-19T22:52:38.835Z,22.60
2022-08-19T23:02:51.465Z,22.60
2022-08-19T23:07:43.185Z,22.60
2022-08-19T23:12:48.720Z,22.60
2022-08-19T23:17:44.580Z,22.60
2022-08-19T23:22:50.171Z,22.60
2022-08-19T23:27:51.299Z,22.50
2022-08-19T23:32:56.799Z,22.50
2022-08-19T23:37:52.646Z,22.50
2022-08-19T23:42:58.104Z,22.50
2022-08-19T23:47:53.889Z,22.50
2022-08-19T23:52:59.330Z,22.50
2022-08-19T23:57:59.973Z,22.50
